Terminal Aerodrome Forecast
Issued by NWS Charleston, WV

Current Version | Previous Version | Graphics & Text | Print | Product List | Glossary On
Versions: 1 2 3 4 5 6 7 8 9 10 11 12 13 14 15 16 17 18 19 20 21 22 23 24 25
000
FTUS41 KRLX 221500 AAA
TAFBKW
TAF AMD
KBKW 221505Z 2215/2312 25015G25KT P6SM SHRA BKN045
     FM221600 25018G29KT P6SM SHRA VCTS BKN035CB
     FM221900 28013G25KT P6SM VCTS BKN030CB
     FM222100 28016G28KT P6SM BKN030
     FM222300 28013G22KT P6SM BKN040
     FM230300 29009KT P6SM BKN040=

USA.gov is the U.S. government's official web portal to all federal, state and local government web resources and services.